sensor_id;sensor_type;location;lat;lon;timestamp;pressure;altitude;pressure_sealevel;temperature;humidity
26487;BME280;14425;56.136;40.360;2023-02-20T00:00:16;97692.19;;;-6.23;82.91
26487;BME280;14425;56.136;40.360;2023-02-20T00:02:42;97696.06;;;-6.99;93.82
26487;BME280;14425;56.136;40.360;2023-02-20T00:05:07;97686.13;;;-5.51;90.48
26487;BME280;14425;56.136;40.360;2023-02-20T00:07:33;97696.13;;;-5.65;87.12
26487;BME280;14425;56.136;40.360;2023-02-20T00:09:58;97688.75;;;-5.75;84.69
26487;BME280;14425;56.136;40.360;2023-02-20T00:12:24;97695.13;;;-5.92;86.89
26487;BME280;14425;56.136;40.360;2023-02-20T00:14:49;97693.44;;;-6.89;90.94
26487;BME280;14425;56.136;40.360;2023-02-20T00:17:15;97702.31;;;-7.52;96.52
26487;BME280;14425;56.136;40.360;2023-02-20T00:19:40;97699.09;;;-7.61;100.00
26487;BME280;14425;56.136;40.360;2023-02-20T00:22:06;97697.72;;;-6.76;99.78
26487;BME280;14425;56.136;40.360;2023-02-20T00:24:31;97702.47;;;-7.61;99.99
26487;BME280;14425;56.136;40.360;2023-02-20T00:26:56;97701.69;;;-7.71;100.00
26487;BME280;14425;56.136;40.360;2023-02-20T00:29:23;97694.66;;;-6.84;100.00
26487;BME280;14425;56.136;40.360;2023-02-20T00:31:50;97693.97;;;-6.22;93.95
26487;BME280;14425;56.136;40.360;2023-02-20T00:34:16;97692.34;;;-6.34;91.13
26487;BME280;14425;56.136;40.360;2023-02-20T00:36:41;97696.16;;;-6.39;89.92
26487;BME280;14425;56.136;40.360;2023-02-20T00:39:07;97691.38;;;-6.71;91.56
26487;BME280;14425;56.136;40.360;2023-02-20T00:41:32;97688.28;;;-6.32;91.49
26487;BME280;14425;56.136;40.360;2023-02-20T00:43:57;97679.91;;;-5.18;86.58
26487;BME280;14425;56.136;40.360;2023-02-20T00:46:23;97687.75;;;-5.13;82.88
26487;BME280;14425;56.136;40.360;2023-02-20T00:48:48;97675.06;;;-5.67;82.17
26487;BME280;14425;56.136;40.360;2023-02-20T00:51:15;97679.66;;;-5.73;82.00
26487;BME280;14425;56.136;40.360;2023-02-20T00:53:41;97684.19;;;-5.55;81.65
26487;BME280;14425;56.136;40.360;2023-02-20T00:56:06;97677.41;;;-6.32;83.01
26487;BME280;14425;56.136;40.360;2023-02-20T00:58:32;97684.09;;;-7.61;90.83
26487;BME280;14425;56.136;40.360;2023-02-20T01:00:58;97685.69;;;-7.16;98.00
26487;BME280;14425;56.136;40.360;2023-02-20T01:03:23;97687.78;;;-7.10;93.60
26487;BME280;14425;56.136;40.360;2023-02-20T01:05:49;97676.31;;;-6.47;92.62
26487;BME280;14425;56.136;40.360;2023-02-20T01:08:14;97679.16;;;-6.55;91.23
26487;BME280;14425;56.136;40.360;2023-02-20T01:10:40;97688.16;;;-7.51;92.68
26487;BME280;14425;56.136;40.360;2023-02-20T01:13:05;97680.16;;;-8.13;99.52
26487;BME280;14425;56.136;40.360;2023-02-20T01:15:31;97683.31;;;-7.72;100.00
26487;BME280;14425;56.136;40.360;2023-02-20T01:17:56;97679.41;;;-7.68;100.00
26487;BME280;14425;56.136;40.360;2023-02-20T01:20:22;97672.63;;;-7.23;100.00
26487;BME280;14425;56.136;40.360;2023-02-20T01:22:47;97665.66;;;-7.04;94.93
26487;BME280;14425;56.136;40.360;2023-02-20T01:25:12;97670.63;;;-7.51;97.58
26487;BME280;14425;56.136;40.360;2023-02-20T01:27:38;97676.78;;;-7.70;98.96
26487;BME280;14425;56.136;40.360;2023-02-20T01:30:04;97671.22;;;-6.73;99.01
26487;BME280;14425;56.136;40.360;2023-02-20T01:32:30;97668.16;;;-6.08;88.82
26487;BME280;14425;56.136;40.360;2023-02-20T01:34:55;97675.00;;;-6.30;88.09
26487;BME280;14425;56.136;40.360;2023-02-20T01:37:21;97675.00;;;-6.54;87.77
26487;BME280;14425;56.136;40.360;2023-02-20T01:39:47;97667.97;;;-7.07;90.67
26487;BME280;14425;56.136;40.360;2023-02-20T01:42:17;97675.69;;;-7.04;96.76
26487;BME280;14425;56.136;40.360;2023-02-20T01:44:43;97676.75;;;-6.53;91.84
26487;BME280;14425;56.136;40.360;2023-02-20T01:47:14;97675.91;;;-7.13;93.94
26487;BME280;14425;56.136;40.360;2023-02-20T01:52:19;97670.94;;;-5.28;85.16
26487;BME280;14425;56.136;40.360;2023-02-20T01:54:51;97671.56;;;-6.19;85.43
26487;BME280;14425;56.136;40.360;2023-02-20T01:57:21;97671.09;;;-6.62;87.78
26487;BME280;14425;56.136;40.360;2023-02-20T01:59:48;97673.06;;;-5.84;87.08
26487;BME280;14425;56.136;40.360;2023-02-20T02:02:16;97675.66;;;-7.39;88.68
26487;BME280;14425;56.136;40.360;2023-02-20T02:04:43;97679.47;;;-7.33;95.52
26487;BME280;14425;56.136;40.360;2023-02-20T02:07:09;97669.94;;;-5.94;87.29
26487;BME280;14425;56.136;40.360;2023-02-20T02:09:55;97678.28;;;-7.14;90.24
26487;BME280;14425;56.136;40.360;2023-02-20T02:12:23;97681.75;;;-7.36;95.07
26487;BME280;14425;56.136;40.360;2023-02-20T02:14:48;97688.50;;;-7.69;97.18
26487;BME280;14425;56.136;40.360;2023-02-20T02:29:03;97687.84;;;-7.32;92.28
26487;BME280;14425;56.136;40.360;2023-02-20T02:31:57;97678.63;;;-6.86;91.86
26487;BME280;14425;56.136;40.360;2023-02-20T02:37:01;97674.97;;;-6.19;87.78
26487;BME280;14425;56.136;40.360;2023-02-20T02:39:45;97693.34;;;-7.02;85.63
26487;BME280;14425;56.136;40.360;2023-02-20T02:44:52;97676.13;;;-5.63;80.92
26487;BME280;14425;56.136;40.360;2023-02-20T02:50:11;97680.28;;;-5.64;82.47
26487;BME280;14425;56.136;40.360;2023-02-20T02:52:40;97672.63;;;-5.40;77.00
26487;BME280;14425;56.136;40.360;2023-02-20T02:55:26;97685.31;;;-5.64;77.51
26487;BME280;14425;56.136;40.360;2023-02-20T02:57:53;97685.06;;;-5.03;76.29
26487;BME280;14425;56.136;40.360;2023-02-20T03:05:32;97678.63;;;-5.63;74.24
26487;BME280;14425;56.136;40.360;2023-02-20T03:08:09;97679.63;;;-6.11;78.30
26487;BME280;14425;56.136;40.360;2023-02-20T03:10:39;97678.34;;;-5.43;76.93
26487;BME280;14425;56.136;40.360;2023-02-20T03:13:05;97684.69;;;-5.09;73.91
26487;BME280;14425;56.136;40.360;2023-02-20T03:15:38;97686.94;;;-6.75;78.37
26487;BME280;14425;56.136;40.360;2023-02-20T03:20:58;97681.16;;;-5.25;79.13
26487;BME280;14425;56.136;40.360;2023-02-20T03:23:38;97677.91;;;-5.10;72.51
26487;BME280;14425;56.136;40.360;2023-02-20T03:26:08;97686.75;;;-5.29;71.21
26487;BME280;14425;56.136;40.360;2023-02-20T03:28:41;97675.34;;;-5.37;73.01
26487;BME280;14425;56.136;40.360;2023-02-20T03:33:41;97673.63;;;-6.98;80.10
26487;BME280;14425;56.136;40.360;2023-02-20T03:36:37;97678.28;;;-6.06;79.42
26487;BME280;14425;56.136;40.360;2023-02-20T03:39:29;97678.41;;;-6.05;77.40
26487;BME280;14425;56.136;40.360;2023-02-20T03:42:16;97675.91;;;-7.25;80.72
26487;BME280;14425;56.136;40.360;2023-02-20T03:45:03;97690.31;;;-7.90;88.05
26487;BME280;14425;56.136;40.360;2023-02-20T03:47:30;97672.09;;;-6.84;86.52
26487;BME280;14425;56.136;40.360;2023-02-20T03:49:57;97672.66;;;-5.90;81.55
26487;BME280;14425;56.136;40.360;2023-02-20T03:52:24;97673.97;;;-6.09;75.95
26487;BME280;14425;56.136;40.360;2023-02-20T03:54:50;97683.00;;;-7.07;81.79
26487;BME280;14425;56.136;40.360;2023-02-20T03:57:29;97693.75;;;-7.66;86.94
26487;BME280;14425;56.136;40.360;2023-02-20T04:00:02;97683.53;;;-7.91;87.84
26487;BME280;14425;56.136;40.360;2023-02-20T04:02:36;97674.00;;;-7.85;91.33
26487;BME280;14425;56.136;40.360;2023-02-20T04:05:08;97680.88;;;-7.36;86.32
26487;BME280;14425;56.136;40.360;2023-02-20T04:07:40;97680.28;;;-6.87;87.44
26487;BME280;14425;56.136;40.360;2023-02-20T04:10:11;97677.16;;;-6.23;79.99
26487;BME280;14425;56.136;40.360;2023-02-20T04:12:42;97681.13;;;-6.86;79.35
26487;BME280;14425;56.136;40.360;2023-02-20T04:15:09;97698.28;;;-8.06;86.51
26487;BME280;14425;56.136;40.360;2023-02-20T04:17:39;97695.13;;;-7.81;86.95
26487;BME280;14425;56.136;40.360;2023-02-20T04:20:07;97685.47;;;-7.19;84.68
26487;BME280;14425;56.136;40.360;2023-02-20T04:22:37;97694.56;;;-6.85;80.53
26487;BME280;14425;56.136;40.360;2023-02-20T04:25:34;97687.56;;;-7.59;83.78
26487;BME280;14425;56.136;40.360;2023-02-20T04:28:03;97687.59;;;-7.47;85.28
26487;BME280;14425;56.136;40.360;2023-02-20T04:30:29;97691.53;;;-7.85;85.57
26487;BME280;14425;56.136;40.360;2023-02-20T04:32:55;97685.50;;;-6.95;84.12
26487;BME280;14425;56.136;40.360;2023-02-20T04:35:20;97689.25;;;-6.29;77.62
26487;BME280;14425;56.136;40.360;2023-02-20T04:37:46;97691.34;;;-5.48;74.50
26487;BME280;14425;56.136;40.360;2023-02-20T04:40:17;97686.53;;;-5.96;71.88
26487;BME280;14425;56.136;40.360;2023-02-20T04:42:43;97679.47;;;-6.38;76.00
26487;BME280;14425;56.136;40.360;2023-02-20T04:45:08;97694.53;;;-6.38;73.36
26487;BME280;14425;56.136;40.360;2023-02-20T04:47:34;97683.34;;;-5.68;73.87
26487;BME280;14425;56.136;40.360;2023-02-20T04:49:59;97689.63;;;-7.08;73.05
26487;BME280;14425;56.136;40.360;2023-02-20T04:52:25;97692.09;;;-7.43;79.40
26487;BME280;14425;56.136;40.360;2023-02-20T04:54:51;97681.81;;;-7.00;78.09
26487;BME280;14425;56.136;40.360;2023-02-20T04:57:17;97678.97;;;-6.81;76.18
26487;BME280;14425;56.136;40.360;2023-02-20T04:59:43;97682.94;;;-7.43;77.50
26487;BME280;14425;56.136;40.360;2023-02-20T05:02:09;97692.00;;;-8.77;84.66
26487;BME280;14425;56.136;40.360;2023-02-20T05:04:35;97694.47;;;-8.01;86.90
26487;BME280;14425;56.136;40.360;2023-02-20T05:07:01;97682.19;;;-6.35;81.83
26487;BME280;14425;56.136;40.360;2023-02-20T05:09:26;97684.03;;;-5.96;75.19
26487;BME280;14425;56.136;40.360;2023-02-20T05:11:52;97678.69;;;-5.75;70.75
26487;BME280;14425;56.136;40.360;2023-02-20T05:14:19;97683.34;;;-5.68;71.60
26487;BME280;14425;56.136;40.360;2023-02-20T05:16:44;97674.69;;;-5.60;69.64
26487;BME280;14425;56.136;40.360;2023-02-20T05:19:11;97685.03;;;-5.16;69.45
26487;BME280;14425;56.136;40.360;2023-02-20T05:21:40;97688.34;;;-5.17;66.10
26487;BME280;14425;56.136;40.360;2023-02-20T05:24:25;97684.72;;;-5.60;65.95
26487;BME280;14425;56.136;40.360;2023-02-20T05:26:53;97688.84;;;-6.36;68.02
26487;BME280;14425;56.136;40.360;2023-02-20T05:29:18;97684.88;;;-6.20;72.12
26487;BME280;14425;56.136;40.360;2023-02-20T05:31:43;97696.00;;;-5.91;72.29
26487;BME280;14425;56.136;40.360;2023-02-20T05:34:09;97688.03;;;-5.22;68.98
26487;BME280;14425;56.136;40.360;2023-02-20T05:36:35;97688.44;;;-4.36;65.64
26487;BME280;14425;56.136;40.360;2023-02-20T05:39:00;97688.66;;;-3.91;62.15
26487;BME280;14425;56.136;40.360;2023-02-20T05:41:26;97696.88;;;-6.16;64.24
26487;BME280;14425;56.136;40.360;2023-02-20T05:43:51;97696.09;;;-6.15;66.90
26487;BME280;14425;56.136;40.360;2023-02-20T05:46:22;97698.03;;;-5.49;67.80
26487;BME280;14425;56.136;40.360;2023-02-20T05:48:49;97696.31;;;-4.98;64.21
26487;BME280;14425;56.136;40.360;2023-02-20T05:51:22;97702.84;;;-5.13;63.90
26487;BME280;14425;56.136;40.360;2023-02-20T05:53:48;97696.78;;;-4.90;64.92
26487;BME280;14425;56.136;40.360;2023-02-20T05:56:13;97701.16;;;-4.48;62.70
26487;BME280;14425;56.136;40.360;2023-02-20T05:58:41;97694.75;;;-4.56;61.61
26487;BME280;14425;56.136;40.360;2023-02-20T06:01:08;97698.72;;;-4.46;62.04
26487;BME280;14425;56.136;40.360;2023-02-20T06:03:33;97699.78;;;-4.96;62.07
26487;BME280;14425;56.136;40.360;2023-02-20T06:05:59;97694.53;;;-6.01;63.34
26487;BME280;14425;56.136;40.360;2023-02-20T06:08:24;97696.19;;;-5.13;65.42
26487;BME280;14425;56.136;40.360;2023-02-20T06:10:50;97689.88;;;-5.83;62.24
26487;BME280;14425;56.136;40.360;2023-02-20T06:13:15;97690.84;;;-6.06;65.35
26487;BME280;14425;56.136;40.360;2023-02-20T06:15:41;97684.22;;;-4.77;64.54
26487;BME280;14425;56.136;40.360;2023-02-20T06:18:06;97693.13;;;-4.69;63.14
26487;BME280;14425;56.136;40.360;2023-02-20T06:20:32;97691.81;;;-4.22;61.35
26487;BME280;14425;56.136;40.360;2023-02-20T06:22:57;97689.31;;;-3.94;58.75
26487;BME280;14425;56.136;40.360;2023-02-20T06:25:23;97696.16;;;-5.51;58.65
26487;BME280;14425;56.136;40.360;2023-02-20T06:27:48;97704.97;;;-5.70;64.15
26487;BME280;14425;56.136;40.360;2023-02-20T06:30:14;97695.44;;;-4.03;61.00
26487;BME280;14425;56.136;40.360;2023-02-20T06:32:40;97699.78;;;-4.56;58.50
26487;BME280;14425;56.136;40.360;2023-02-20T06:35:05;97692.34;;;-5.97;60.39
26487;BME280;14425;56.136;40.360;2023-02-20T06:37:31;97702.47;;;-5.70;62.64
26487;BME280;14425;56.136;40.360;2023-02-20T06:39:57;97694.03;;;-6.09;60.90
26487;BME280;14425;56.136;40.360;2023-02-20T06:42:22;97682.94;;;-5.49;66.61
26487;BME280;14425;56.136;40.360;2023-02-20T06:44:48;97685.22;;;-4.06;61.54
26487;BME280;14425;56.136;40.360;2023-02-20T06:47:14;97699.00;;;-4.95;56.92
26487;BME280;14425;56.136;40.360;2023-02-20T06:49:40;97699.81;;;-5.34;61.63
26487;BME280;14425;56.136;40.360;2023-02-20T06:52:06;97699.94;;;-5.20;60.64
26487;BME280;14425;56.136;40.360;2023-02-20T06:54:32;97699.59;;;-4.86;59.46
26487;BME280;14425;56.136;40.360;2023-02-20T06:56:59;97698.69;;;-4.19;58.95
26487;BME280;14425;56.136;40.360;2023-02-20T06:59:24;97692.06;;;-3.76;56.52
26487;BME280;14425;56.136;40.360;2023-02-20T07:01:50;97686.59;;;-2.66;54.47
26487;BME280;14425;56.136;40.360;2023-02-20T07:04:18;97692.25;;;-3.29;55.67
26487;BME280;14425;56.136;40.360;2023-02-20T07:06:44;97703.03;;;-5.10;56.11
26487;BME280;14425;56.136;40.360;2023-02-20T07:09:11;97706.94;;;-4.62;60.41
26487;BME280;14425;56.136;40.360;2023-02-20T07:11:36;97693.41;;;-2.94;57.72
26487;BME280;14425;56.136;40.360;2023-02-20T07:14:02;97697.66;;;-2.64;53.19
26487;BME280;14425;56.136;40.360;2023-02-20T07:16:27;97691.25;;;-2.88;51.25
26487;BME280;14425;56.136;40.360;2023-02-20T07:18:53;97696.44;;;-3.73;55.79
26487;BME280;14425;56.136;40.360;2023-02-20T07:21:18;97685.69;;;-1.89;53.24
26487;BME280;14425;56.136;40.360;2023-02-20T07:23:44;97695.13;;;-1.19;50.91
26487;BME280;14425;56.136;40.360;2023-02-20T07:26:21;97677.06;;;-0.01;49.36
26487;BME280;14425;56.136;40.360;2023-02-20T07:28:47;97688.91;;;-0.55;48.32
26487;BME280;14425;56.136;40.360;2023-02-20T07:31:13;97683.34;;;-1.53;49.58
26487;BME280;14425;56.136;40.360;2023-02-20T07:33:38;97684.91;;;-0.51;49.70
26487;BME280;14425;56.136;40.360;2023-02-20T07:36:04;97687.06;;;-0.23;47.59
26487;BME280;14425;56.136;40.360;2023-02-20T07:38:30;97687.84;;;-1.13;47.50
26487;BME280;14425;56.136;40.360;2023-02-20T07:40:55;97686.19;;;0.14;47.57
26487;BME280;14425;56.136;40.360;2023-02-20T07:43:21;97690.72;;;-0.16;46.08
26487;BME280;14425;56.136;40.360;2023-02-20T07:45:47;97693.13;;;-0.38;44.93
26487;BME280;14425;56.136;40.360;2023-02-20T07:48:13;97696.72;;;-1.21;46.58
26487;BME280;14425;56.136;40.360;2023-02-20T07:50:38;97688.31;;;-0.13;47.21
26487;BME280;14425;56.136;40.360;2023-02-20T07:53:04;97683.44;;;1.08;44.82
26487;BME280;14425;56.136;40.360;2023-02-20T07:55:29;97685.53;;;1.19;45.09
26487;BME280;14425;56.136;40.360;2023-02-20T07:57:55;97684.91;;;1.45;43.97
26487;BME280;14425;56.136;40.360;2023-02-20T08:00:24;97684.00;;;1.43;43.80
26487;BME280;14425;56.136;40.360;2023-02-20T08:02:49;97678.72;;;2.05;43.49
26487;BME280;14425;56.136;40.360;2023-02-20T08:05:15;97685.25;;;1.98;42.97
26487;BME280;14425;56.136;40.360;2023-02-20T08:07:48;97687.75;;;1.53;43.56
26487;BME280;14425;56.136;40.360;2023-02-20T08:10:15;97688.16;;;1.64;40.77
26487;BME280;14425;56.136;40.360;2023-02-20T08:12:42;97680.53;;;2.32;42.25
26487;BME280;14425;56.136;40.360;2023-02-20T08:15:08;97687.50;;;2.13;41.11
26487;BME280;14425;56.136;40.360;2023-02-20T08:17:37;97685.63;;;1.64;41.37
26487;BME280;14425;56.136;40.360;2023-02-20T08:20:04;97681.69;;;1.93;42.53
26487;BME280;14425;56.136;40.360;2023-02-20T08:22:29;97689.44;;;0.31;43.01
26487;BME280;14425;56.136;40.360;2023-02-20T08:24:55;97677.94;;;2.78;42.52
26487;BME280;14425;56.136;40.360;2023-02-20T08:27:20;97681.66;;;1.71;40.88
26487;BME280;14425;56.136;40.360;2023-02-20T08:29:46;97686.69;;;2.14;42.87
26487;BME280;14425;56.136;40.360;2023-02-20T08:32:11;97684.56;;;1.15;40.06
26487;BME280;14425;56.136;40.360;2023-02-20T08:34:37;97699.44;;;-0.29;42.87
26487;BME280;14425;56.136;40.360;2023-02-20T08:37:02;97689.31;;;1.07;43.79
26487;BME280;14425;56.136;40.360;2023-02-20T08:39:28;97690.56;;;1.82;40.86
26487;BME280;14425;56.136;40.360;2023-02-20T08:41:54;97687.25;;;2.07;40.95
26487;BME280;14425;56.136;40.360;2023-02-20T08:44:19;97682.38;;;3.10;40.36
26487;BME280;14425;56.136;40.360;2023-02-20T08:46:49;97691.72;;;0.83;38.85
26487;BME280;14425;56.136;40.360;2023-02-20T08:49:16;97687.97;;;1.59;40.68
26487;BME280;14425;56.136;40.360;2023-02-20T08:51:47;97692.16;;;2.01;37.59
26487;BME280;14425;56.136;40.360;2023-02-20T08:54:14;97700.97;;;0.05;40.06
26487;BME280;14425;56.136;40.360;2023-02-20T08:56:43;97693.06;;;1.59;41.46
26487;BME280;14425;56.136;40.360;2023-02-20T08:59:08;97689.31;;;2.17;39.21
26487;BME280;14425;56.136;40.360;2023-02-20T09:01:34;97699.06;;;2.28;38.76
26487;BME280;14425;56.136;40.360;2023-02-20T09:03:59;97695.00;;;2.33;38.33
26487;BME280;14425;56.136;40.360;2023-02-20T09:06:26;97688.31;;;2.59;37.04
26487;BME280;14425;56.136;40.360;2023-02-20T09:08:54;97690.47;;;2.98;39.02
26487;BME280;14425;56.136;40.360;2023-02-20T09:11:19;97686.09;;;2.44;36.10
26487;BME280;14425;56.136;40.360;2023-02-20T09:13:47;97678.06;;;3.60;37.25
26487;BME280;14425;56.136;40.360;2023-02-20T09:16:14;97669.09;;;5.29;36.25
26487;BME280;14425;56.136;40.360;2023-02-20T09:18:40;97683.16;;;4.47;36.08
26487;BME280;14425;56.136;40.360;2023-02-20T09:21:09;97674.50;;;5.05;36.55
26487;BME280;14425;56.136;40.360;2023-02-20T09:23:36;97670.31;;;6.18;34.00
26487;BME280;14425;56.136;40.360;2023-02-20T09:26:03;97691.19;;;2.46;35.00
26487;BME280;14425;56.136;40.360;2023-02-20T09:28:29;97686.25;;;2.73;38.03
26487;BME280;14425;56.136;40.360;2023-02-20T09:30:54;97671.38;;;4.84;35.46
26487;BME280;14425;56.136;40.360;2023-02-20T09:33:22;97677.94;;;4.13;36.67
26487;BME280;14425;56.136;40.360;2023-02-20T09:35:48;97688.72;;;3.21;35.33
26487;BME280;14425;56.136;40.360;2023-02-20T09:38:16;97690.25;;;3.16;36.01
26487;BME280;14425;56.136;40.360;2023-02-20T09:40:43;97673.00;;;5.13;36.02
26487;BME280;14425;56.136;40.360;2023-02-20T09:43:26;97675.22;;;5.01;34.59
26487;BME280;14425;56.136;40.360;2023-02-20T09:51:18;97677.00;;;3.81;35.08
26487;BME280;14425;56.136;40.360;2023-02-20T09:56:27;97668.31;;;4.97;35.30
26487;BME280;14425;56.136;40.360;2023-02-20T09:59:09;97664.09;;;4.66;36.53
26487;BME280;14425;56.136;40.360;2023-02-20T10:01:40;97667.38;;;4.01;35.07
26487;BME280;14425;56.136;40.360;2023-02-20T10:04:12;97676.50;;;3.38;34.28
26487;BME280;14425;56.136;40.360;2023-02-20T10:06:40;97673.88;;;2.35;38.05
26487;BME280;14425;56.136;40.360;2023-02-20T10:09:09;97679.03;;;0.83;40.03
26487;BME280;14425;56.136;40.360;2023-02-20T10:11:53;97683.72;;;1.16;39.79
26487;BME280;14425;56.136;40.360;2023-02-20T10:17:11;97686.91;;;3.19;39.98
26487;BME280;14425;56.136;40.360;2023-02-20T10:22:34;97685.84;;;1.91;39.61
26487;BME280;14425;56.136;40.360;2023-02-20T10:25:10;97681.81;;;3.44;37.49
26487;BME280;14425;56.136;40.360;2023-02-20T10:28:12;97686.69;;;1.92;36.84
26487;BME280;14425;56.136;40.360;2023-02-20T10:30:41;97677.34;;;3.37;36.66
26487;BME280;14425;56.136;40.360;2023-02-20T10:33:18;97667.72;;;4.42;37.13
26487;BME280;14425;56.136;40.360;2023-02-20T10:35:52;97681.38;;;3.30;35.21
26487;BME280;14425;56.136;40.360;2023-02-20T10:38:24;97671.66;;;3.73;36.55
26487;BME280;14425;56.136;40.360;2023-02-20T10:41:01;97679.44;;;4.35;36.45
26487;BME280;14425;56.136;40.360;2023-02-20T10:43:47;97670.84;;;5.67;33.24
26487;BME280;14425;56.136;40.360;2023-02-20T10:46:21;97679.59;;;5.40;34.05
26487;BME280;14425;56.136;40.360;2023-02-20T10:48:51;97669.03;;;5.98;33.89
26487;BME280;14425;56.136;40.360;2023-02-20T10:51:33;97676.19;;;5.40;31.24
26487;BME280;14425;56.136;40.360;2023-02-20T10:54:06;97675.59;;;5.88;34.52
26487;BME280;14425;56.136;40.360;2023-02-20T10:56:42;97669.34;;;6.13;32.67
26487;BME280;14425;56.136;40.360;2023-02-20T10:59:19;97675.72;;;7.25;32.85
26487;BME280;14425;56.136;40.360;2023-02-20T11:01:51;97673.06;;;5.51;31.99
26487;BME280;14425;56.136;40.360;2023-02-20T11:04:23;97687.03;;;2.72;32.98
26487;BME280;14425;56.136;40.360;2023-02-20T11:06:55;97678.09;;;2.83;37.61
26487;BME280;14425;56.136;40.360;2023-02-20T11:09:21;97680.56;;;2.09;33.86
26487;BME280;14425;56.136;40.360;2023-02-20T11:11:52;97667.97;;;3.92;35.37
26487;BME280;14425;56.136;40.360;2023-02-20T11:14:33;97668.72;;;4.18;34.19
26487;BME280;14425;56.136;40.360;2023-02-20T11:17:12;97665.75;;;4.97;35.23
26487;BME280;14425;56.136;40.360;2023-02-20T11:19:44;97672.47;;;3.45;33.64
26487;BME280;14425;56.136;40.360;2023-02-20T11:22:12;97683.91;;;1.85;37.65
26487;BME280;14425;56.136;40.360;2023-02-20T11:24:39;97682.75;;;3.75;35.91
26487;BME280;14425;56.136;40.360;2023-02-20T11:27:21;97680.47;;;3.03;33.86
26487;BME280;14425;56.136;40.360;2023-02-20T11:29:58;97678.81;;;3.05;37.37
26487;BME280;14425;56.136;40.360;2023-02-20T11:32:38;97681.75;;;2.19;37.01
26487;BME280;14425;56.136;40.360;2023-02-20T11:37:41;97684.28;;;3.97;37.12
26487;BME280;14425;56.136;40.360;2023-02-20T11:40:33;97675.91;;;5.64;34.17
26487;BME280;14425;56.136;40.360;2023-02-20T11:43:28;97667.94;;;4.83;34.11
26487;BME280;14425;56.136;40.360;2023-02-20T11:49:05;97670.41;;;5.12;34.50
26487;BME280;14425;56.136;40.360;2023-02-20T11:51:38;97668.00;;;4.53;36.23
26487;BME280;14425;56.136;40.360;2023-02-20T11:59:48;97675.72;;;4.56;35.87
26487;BME280;14425;56.136;40.360;2023-02-20T12:04:44;97681.72;;;3.97;34.92
26487;BME280;14425;56.136;40.360;2023-02-20T12:07:54;97690.19;;;2.65;36.96
26487;BME280;14425;56.136;40.360;2023-02-20T12:12:49;97679.22;;;3.43;38.00
26487;BME280;14425;56.136;40.360;2023-02-20T12:15:17;97688.94;;;1.84;37.91
26487;BME280;14425;56.136;40.360;2023-02-20T12:17:56;97682.69;;;1.76;37.66
26487;BME280;14425;56.136;40.360;2023-02-20T12:20:27;97685.41;;;1.16;40.39
26487;BME280;14425;56.136;40.360;2023-02-20T12:34:57;97695.94;;;1.90;39.11
26487;BME280;14425;56.136;40.360;2023-02-20T12:43:47;97689.25;;;2.14;37.98
26487;BME280;14425;56.136;40.360;2023-02-20T12:46:27;97689.94;;;2.10;37.47
26487;BME280;14425;56.136;40.360;2023-02-20T12:52:13;97698.13;;;1.80;36.70
26487;BME280;14425;56.136;40.360;2023-02-20T12:59:56;97701.66;;;0.59;40.21
26487;BME280;14425;56.136;40.360;2023-02-20T13:02:35;97697.38;;;0.78;39.36
26487;BME280;14425;56.136;40.360;2023-02-20T13:05:03;97705.53;;;0.51;40.71
26487;BME280;14425;56.136;40.360;2023-02-20T13:07:54;97699.16;;;1.63;40.48
26487;BME280;14425;56.136;40.360;2023-02-20T13:10:29;97702.00;;;1.07;39.84
26487;BME280;14425;56.136;40.360;2023-02-20T13:12:56;97708.88;;;0.69;39.64
26487;BME280;14425;56.136;40.360;2023-02-20T13:18:19;97729.22;;;-3.15;45.59
26487;BME280;14425;56.136;40.360;2023-02-20T13:21:01;97734.84;;;-3.34;61.40
26487;BME280;14425;56.136;40.360;2023-02-20T13:23:31;97717.44;;;1.12;55.65
26487;BME280;14425;56.136;40.360;2023-02-20T13:25:56;97709.94;;;1.15;50.55
26487;BME280;14425;56.136;40.360;2023-02-20T13:28:54;97703.78;;;0.89;45.81
26487;BME280;14425;56.136;40.360;2023-02-20T13:55:13;97742.69;;;-3.29;47.18
26487;BME280;14425;56.136;40.360;2023-02-20T14:02:47;97749.91;;;-4.19;53.57
26487;BME280;14425;56.136;40.360;2023-02-20T14:05:28;97753.25;;;-3.92;51.26
26487;BME280;14425;56.136;40.360;2023-02-20T14:07:54;97748.75;;;-4.24;48.99
26487;BME280;14425;56.136;40.360;2023-02-20T14:10:35;97754.75;;;-5.14;50.65
26487;BME280;14425;56.136;40.360;2023-02-20T14:13:20;97746.91;;;-4.67;51.42
26487;BME280;14425;56.136;40.360;2023-02-20T14:15:56;97744.09;;;-4.18;52.25
26487;BME280;14425;56.136;40.360;2023-02-20T14:18:29;97733.38;;;-3.59;51.97
26487;BME280;14425;56.136;40.360;2023-02-20T14:23:30;97743.81;;;-4.49;49.95
26487;BME280;14425;56.136;40.360;2023-02-20T14:25:58;97739.94;;;-4.44;51.20
26487;BME280;14425;56.136;40.360;2023-02-20T14:28:24;97733.56;;;-3.56;50.86
26487;BME280;14425;56.136;40.360;2023-02-20T14:33:54;97742.56;;;-3.74;49.60
26487;BME280;14425;56.136;40.360;2023-02-20T14:39:25;97732.09;;;-3.52;48.58
26487;BME280;14425;56.136;40.360;2023-02-20T14:42:01;97734.28;;;-3.00;48.31
26487;BME280;14425;56.136;40.360;2023-02-20T14:44:28;97735.63;;;-3.35;47.19
26487;BME280;14425;56.136;40.360;2023-02-20T14:47:01;97747.38;;;-3.21;48.01
26487;BME280;14425;56.136;40.360;2023-02-20T14:49:30;97743.94;;;-3.08;49.68
26487;BME280;14425;56.136;40.360;2023-02-20T14:54:43;97748.03;;;-3.10;48.55
26487;BME280;14425;56.136;40.360;2023-02-20T14:57:13;97745.69;;;-3.50;47.73
26487;BME280;14425;56.136;40.360;2023-02-20T14:59:40;97751.50;;;-3.51;47.63
26487;BME280;14425;56.136;40.360;2023-02-20T15:02:20;97749.03;;;-4.19;48.02
26487;BME280;14425;56.136;40.360;2023-02-20T15:04:52;97751.47;;;-4.34;51.02
26487;BME280;14425;56.136;40.360;2023-02-20T15:07:21;97753.97;;;-5.38;49.84
26487;BME280;14425;56.136;40.360;2023-02-20T15:09:53;97751.34;;;-5.28;52.18
26487;BME280;14425;56.136;40.360;2023-02-20T15:12:30;97735.00;;;-4.56;52.52
26487;BME280;14425;56.136;40.360;2023-02-20T15:15:11;97744.50;;;-3.70;49.49
26487;BME280;14425;56.136;40.360;2023-02-20T15:17:42;97733.22;;;-3.90;49.16